sensor_id;sensor_type;location;lat;lon;timestamp;P1;durP1;ratioP1;P2;durP2;ratioP2
24261;SDS011;12385;51.412;5.540;2023-04-03T00:01:13;10.18;;;6.13;;
24261;SDS011;12385;51.412;5.540;2023-04-03T00:03:39;9.80;;;5.50;;
24261;SDS011;12385;51.412;5.540;2023-04-03T00:06:08;9.73;;;6.57;;
24261;SDS011;12385;51.412;5.540;2023-04-03T00:08:36;8.45;;;6.13;;
24261;SDS011;12385;51.412;5.540;2023-04-03T00:11:02;11.43;;;6.72;;
24261;SDS011;12385;51.412;5.540;2023-04-03T00:13:29;12.80;;;6.88;;
24261;SDS011;12385;51.412;5.540;2023-04-03T00:15:55;11.52;;;6.70;;
24261;SDS011;12385;51.412;5.540;2023-04-03T00:18:21;12.38;;;7.50;;
24261;SDS011;12385;51.412;5.540;2023-04-03T00:20:48;10.07;;;7.10;;
24261;SDS011;12385;51.412;5.540;2023-04-03T00:23:13;13.48;;;7.78;;
24261;SDS011;12385;51.412;5.540;2023-04-03T00:25:40;11.73;;;7.45;;
24261;SDS011;12385;51.412;5.540;2023-04-03T00:28:05;14.27;;;7.65;;
24261;SDS011;12385;51.412;5.540;2023-04-03T00:30:31;12.55;;;7.20;;
24261;SDS011;12385;51.412;5.540;2023-04-03T00:32:57;13.95;;;6.60;;
24261;SDS011;12385;51.412;5.540;2023-04-03T00:35:23;11.48;;;6.75;;
24261;SDS011;12385;51.412;5.540;2023-04-03T00:37:50;12.65;;;7.20;;
24261;SDS011;12385;51.412;5.540;2023-04-03T00:40:17;10.02;;;6.95;;
24261;SDS011;12385;51.412;5.540;2023-04-03T00:42:45;14.95;;;7.30;;
24261;SDS011;12385;51.412;5.540;2023-04-03T00:47:50;12.32;;;6.90;;
24261;SDS011;12385;51.412;5.540;2023-04-03T00:50:16;13.57;;;7.07;;
24261;SDS011;12385;51.412;5.540;2023-04-03T00:52:42;14.48;;;7.65;;
24261;SDS011;12385;51.412;5.540;2023-04-03T00:55:11;12.32;;;6.80;;
24261;SDS011;12385;51.412;5.540;2023-04-03T00:57:39;9.43;;;6.63;;
24261;SDS011;12385;51.412;5.540;2023-04-03T01:02:37;13.23;;;7.13;;
24261;SDS011;12385;51.412;5.540;2023-04-03T01:05:05;10.50;;;7.00;;
24261;SDS011;12385;51.412;5.540;2023-04-03T01:07:31;8.80;;;6.40;;
24261;SDS011;12385;51.412;5.540;2023-04-03T01:10:00;12.00;;;7.18;;
24261;SDS011;12385;51.412;5.540;2023-04-03T01:12:30;9.35;;;6.43;;
24261;SDS011;12385;51.412;5.540;2023-04-03T01:15:05;10.20;;;6.90;;
24261;SDS011;12385;51.412;5.540;2023-04-03T01:23:07;13.13;;;7.63;;
24261;SDS011;12385;51.412;5.540;2023-04-03T01:25:59;12.00;;;7.45;;
24261;SDS011;12385;51.412;5.540;2023-04-03T01:28:28;8.68;;;7.13;;
24261;SDS011;12385;51.412;5.540;2023-04-03T01:33:41;13.43;;;8.05;;
24261;SDS011;12385;51.412;5.540;2023-04-03T01:36:09;12.95;;;8.38;;
24261;SDS011;12385;51.412;5.540;2023-04-03T01:38:42;12.80;;;8.55;;
24261;SDS011;12385;51.412;5.540;2023-04-03T01:41:08;13.27;;;7.90;;
24261;SDS011;12385;51.412;5.540;2023-04-03T01:43:34;14.02;;;8.30;;
24261;SDS011;12385;51.412;5.540;2023-04-03T01:46:00;11.68;;;8.63;;
24261;SDS011;12385;51.412;5.540;2023-04-03T01:48:25;12.25;;;8.07;;
24261;SDS011;12385;51.412;5.540;2023-04-03T01:50:53;10.82;;;8.27;;
24261;SDS011;12385;51.412;5.540;2023-04-03T01:53:19;14.20;;;8.68;;
24261;SDS011;12385;51.412;5.540;2023-04-03T01:55:45;13.77;;;9.05;;
24261;SDS011;12385;51.412;5.540;2023-04-03T01:58:11;14.10;;;8.20;;
24261;SDS011;12385;51.412;5.540;2023-04-03T02:00:36;13.77;;;7.95;;
24261;SDS011;12385;51.412;5.540;2023-04-03T02:03:02;11.52;;;8.25;;
24261;SDS011;12385;51.412;5.540;2023-04-03T02:05:28;14.10;;;8.55;;
24261;SDS011;12385;51.412;5.540;2023-04-03T02:07:54;12.07;;;8.30;;
24261;SDS011;12385;51.412;5.540;2023-04-03T02:10:20;13.30;;;9.00;;
24261;SDS011;12385;51.412;5.540;2023-04-03T02:12:46;13.57;;;9.70;;
24261;SDS011;12385;51.412;5.540;2023-04-03T02:15:11;12.90;;;9.20;;
24261;SDS011;12385;51.412;5.540;2023-04-03T02:17:37;11.98;;;8.95;;
24261;SDS011;12385;51.412;5.540;2023-04-03T02:20:03;15.48;;;9.88;;
24261;SDS011;12385;51.412;5.540;2023-04-03T02:22:29;17.67;;;9.90;;
24261;SDS011;12385;51.412;5.540;2023-04-03T02:24:55;15.57;;;10.18;;
24261;SDS011;12385;51.412;5.540;2023-04-03T02:27:21;15.13;;;10.00;;
24261;SDS011;12385;51.412;5.540;2023-04-03T02:29:48;13.85;;;10.55;;
24261;SDS011;12385;51.412;5.540;2023-04-03T02:32:13;19.50;;;11.18;;
24261;SDS011;12385;51.412;5.540;2023-04-03T02:34:39;15.93;;;9.98;;
24261;SDS011;12385;51.412;5.540;2023-04-03T02:37:05;14.32;;;9.45;;
24261;SDS011;12385;51.412;5.540;2023-04-03T02:39:31;15.00;;;10.32;;
24261;SDS011;12385;51.412;5.540;2023-04-03T02:41:57;17.25;;;10.18;;
24261;SDS011;12385;51.412;5.540;2023-04-03T02:44:23;13.98;;;9.30;;
24261;SDS011;12385;51.412;5.540;2023-04-03T02:46:49;16.58;;;9.40;;
24261;SDS011;12385;51.412;5.540;2023-04-03T02:49:15;16.67;;;9.13;;
24261;SDS011;12385;51.412;5.540;2023-04-03T02:51:41;17.42;;;10.10;;
24261;SDS011;12385;51.412;5.540;2023-04-03T02:54:07;16.80;;;9.35;;
24261;SDS011;12385;51.412;5.540;2023-04-03T02:56:33;15.85;;;9.50;;
24261;SDS011;12385;51.412;5.540;2023-04-03T02:59:00;16.15;;;9.10;;
24261;SDS011;12385;51.412;5.540;2023-04-03T03:01:25;18.25;;;9.70;;
24261;SDS011;12385;51.412;5.540;2023-04-03T03:03:53;12.73;;;9.40;;
24261;SDS011;12385;51.412;5.540;2023-04-03T03:06:19;19.23;;;8.73;;
24261;SDS011;12385;51.412;5.540;2023-04-03T03:08:45;16.42;;;9.30;;
24261;SDS011;12385;51.412;5.540;2023-04-03T03:11:11;14.23;;;9.10;;
24261;SDS011;12385;51.412;5.540;2023-04-03T03:13:38;16.27;;;8.10;;
24261;SDS011;12385;51.412;5.540;2023-04-03T03:16:04;13.55;;;8.70;;
24261;SDS011;12385;51.412;5.540;2023-04-03T03:18:30;18.40;;;8.93;;
24261;SDS011;12385;51.412;5.540;2023-04-03T03:21:00;13.73;;;7.97;;
24261;SDS011;12385;51.412;5.540;2023-04-03T03:23:28;14.88;;;8.20;;
24261;SDS011;12385;51.412;5.540;2023-04-03T03:25:56;11.18;;;7.70;;
24261;SDS011;12385;51.412;5.540;2023-04-03T03:28:23;17.25;;;7.40;;
24261;SDS011;12385;51.412;5.540;2023-04-03T03:30:49;12.20;;;6.93;;
24261;SDS011;12385;51.412;5.540;2023-04-03T03:33:15;12.27;;;7.40;;
24261;SDS011;12385;51.412;5.540;2023-04-03T03:35:42;10.40;;;6.35;;
24261;SDS011;12385;51.412;5.540;2023-04-03T03:38:08;11.77;;;6.43;;
24261;SDS011;12385;51.412;5.540;2023-04-03T03:40:34;14.27;;;7.20;;
24261;SDS011;12385;51.412;5.540;2023-04-03T03:43:00;10.13;;;6.60;;
24261;SDS011;12385;51.412;5.540;2023-04-03T03:45:28;10.80;;;6.40;;
24261;SDS011;12385;51.412;5.540;2023-04-03T03:47:54;11.98;;;6.80;;
24261;SDS011;12385;51.412;5.540;2023-04-03T03:50:20;12.77;;;6.20;;
24261;SDS011;12385;51.412;5.540;2023-04-03T03:52:46;10.27;;;6.30;;
24261;SDS011;12385;51.412;5.540;2023-04-03T03:55:11;12.57;;;7.25;;
24261;SDS011;12385;51.412;5.540;2023-04-03T03:57:37;9.23;;;6.07;;
24261;SDS011;12385;51.412;5.540;2023-04-03T04:00:03;10.95;;;6.28;;
24261;SDS011;12385;51.412;5.540;2023-04-03T04:02:30;10.60;;;5.80;;
24261;SDS011;12385;51.412;5.540;2023-04-03T04:04:55;10.77;;;6.53;;
24261;SDS011;12385;51.412;5.540;2023-04-03T04:07:21;11.32;;;5.65;;
24261;SDS011;12385;51.412;5.540;2023-04-03T04:09:47;15.48;;;6.15;;
24261;SDS011;12385;51.412;5.540;2023-04-03T04:12:13;12.23;;;5.93;;
24261;SDS011;12385;51.412;5.540;2023-04-03T04:14:39;12.40;;;5.57;;
24261;SDS011;12385;51.412;5.540;2023-04-03T04:17:05;10.98;;;5.63;;
24261;SDS011;12385;51.412;5.540;2023-04-03T04:19:31;9.55;;;5.47;;
24261;SDS011;12385;51.412;5.540;2023-04-03T04:21:58;16.65;;;6.05;;
24261;SDS011;12385;51.412;5.540;2023-04-03T04:24:24;12.68;;;5.05;;
24261;SDS011;12385;51.412;5.540;2023-04-03T04:26:50;10.80;;;5.22;;
24261;SDS011;12385;51.412;5.540;2023-04-03T04:29:15;11.48;;;5.40;;
24261;SDS011;12385;51.412;5.540;2023-04-03T04:31:41;9.68;;;5.40;;
24261;SDS011;12385;51.412;5.540;2023-04-03T04:34:07;9.65;;;4.78;;
24261;SDS011;12385;51.412;5.540;2023-04-03T04:36:33;13.70;;;5.10;;
24261;SDS011;12385;51.412;5.540;2023-04-03T04:38:58;14.15;;;5.20;;
24261;SDS011;12385;51.412;5.540;2023-04-03T04:41:24;11.13;;;5.00;;
24261;SDS011;12385;51.412;5.540;2023-04-03T04:43:51;12.52;;;5.13;;
24261;SDS011;12385;51.412;5.540;2023-04-03T04:46:17;11.25;;;4.95;;
24261;SDS011;12385;51.412;5.540;2023-04-03T04:48:44;14.07;;;4.50;;
24261;SDS011;12385;51.412;5.540;2023-04-03T04:51:10;12.30;;;4.78;;
24261;SDS011;12385;51.412;5.540;2023-04-03T04:53:36;8.50;;;4.03;;
24261;SDS011;12385;51.412;5.540;2023-04-03T04:56:03;9.88;;;4.60;;
24261;SDS011;12385;51.412;5.540;2023-04-03T04:58:29;10.63;;;4.32;;
24261;SDS011;12385;51.412;5.540;2023-04-03T05:01:02;10.63;;;4.53;;
24261;SDS011;12385;51.412;5.540;2023-04-03T05:03:30;8.82;;;3.95;;
24261;SDS011;12385;51.412;5.540;2023-04-03T05:05:56;9.95;;;4.70;;
24261;SDS011;12385;51.412;5.540;2023-04-03T05:08:22;8.93;;;4.18;;
24261;SDS011;12385;51.412;5.540;2023-04-03T05:10:48;12.43;;;4.40;;
24261;SDS011;12385;51.412;5.540;2023-04-03T05:13:14;8.05;;;4.15;;
24261;SDS011;12385;51.412;5.540;2023-04-03T05:15:40;9.70;;;4.35;;
24261;SDS011;12385;51.412;5.540;2023-04-03T05:18:07;9.68;;;4.20;;
24261;SDS011;12385;51.412;5.540;2023-04-03T05:20:32;7.32;;;3.60;;
24261;SDS011;12385;51.412;5.540;2023-04-03T05:22:58;10.60;;;3.90;;
24261;SDS011;12385;51.412;5.540;2023-04-03T05:25:24;10.43;;;3.97;;
24261;SDS011;12385;51.412;5.540;2023-04-03T05:27:50;9.77;;;3.67;;
24261;SDS011;12385;51.412;5.540;2023-04-03T05:30:16;12.77;;;3.95;;
24261;SDS011;12385;51.412;5.540;2023-04-03T05:32:42;10.25;;;3.50;;
24261;SDS011;12385;51.412;5.540;2023-04-03T05:35:08;6.93;;;3.30;;
24261;SDS011;12385;51.412;5.540;2023-04-03T05:37:34;8.75;;;3.15;;
24261;SDS011;12385;51.412;5.540;2023-04-03T05:40:00;7.30;;;3.08;;
24261;SDS011;12385;51.412;5.540;2023-04-03T05:42:26;10.65;;;3.55;;
24261;SDS011;12385;51.412;5.540;2023-04-03T05:44:52;8.88;;;3.53;;
24261;SDS011;12385;51.412;5.540;2023-04-03T05:47:18;8.15;;;3.45;;
24261;SDS011;12385;51.412;5.540;2023-04-03T05:49:44;8.55;;;3.38;;
24261;SDS011;12385;51.412;5.540;2023-04-03T05:52:29;6.57;;;2.95;;
24261;SDS011;12385;51.412;5.540;2023-04-03T05:54:56;10.40;;;3.25;;
24261;SDS011;12385;51.412;5.540;2023-04-03T05:57:22;9.65;;;3.20;;
24261;SDS011;12385;51.412;5.540;2023-04-03T05:59:48;8.52;;;3.40;;
24261;SDS011;12385;51.412;5.540;2023-04-03T06:02:15;10.07;;;3.17;;
24261;SDS011;12385;51.412;5.540;2023-04-03T06:04:43;7.53;;;2.90;;
24261;SDS011;12385;51.412;5.540;2023-04-03T06:07:12;10.02;;;3.10;;
24261;SDS011;12385;51.412;5.540;2023-04-03T06:09:45;14.40;;;3.17;;
24261;SDS011;12385;51.412;5.540;2023-04-03T06:12:11;9.05;;;3.33;;
24261;SDS011;12385;51.412;5.540;2023-04-03T06:14:36;8.82;;;2.90;;
24261;SDS011;12385;51.412;5.540;2023-04-03T06:17:02;6.97;;;3.60;;
24261;SDS011;12385;51.412;5.540;2023-04-03T06:19:29;10.13;;;3.22;;
24261;SDS011;12385;51.412;5.540;2023-04-03T06:21:55;9.73;;;3.10;;
24261;SDS011;12385;51.412;5.540;2023-04-03T06:24:22;7.80;;;2.80;;
24261;SDS011;12385;51.412;5.540;2023-04-03T06:26:49;8.90;;;3.05;;
24261;SDS011;12385;51.412;5.540;2023-04-03T06:29:16;8.52;;;3.28;;
24261;SDS011;12385;51.412;5.540;2023-04-03T06:31:43;6.03;;;2.50;;
24261;SDS011;12385;51.412;5.540;2023-04-03T06:34:09;10.05;;;2.63;;
24261;SDS011;12385;51.412;5.540;2023-04-03T06:36:36;7.35;;;2.70;;
24261;SDS011;12385;51.412;5.540;2023-04-03T06:39:03;7.60;;;2.75;;
24261;SDS011;12385;51.412;5.540;2023-04-03T06:41:30;8.10;;;2.88;;
24261;SDS011;12385;51.412;5.540;2023-04-03T06:43:56;8.48;;;2.90;;
24261;SDS011;12385;51.412;5.540;2023-04-03T06:46:23;9.52;;;3.85;;
24261;SDS011;12385;51.412;5.540;2023-04-03T06:48:50;6.97;;;2.85;;
24261;SDS011;12385;51.412;5.540;2023-04-03T06:51:20;8.82;;;3.28;;
24261;SDS011;12385;51.412;5.540;2023-04-03T06:53:51;7.75;;;2.95;;
24261;SDS011;12385;51.412;5.540;2023-04-03T06:56:18;10.18;;;2.92;;
24261;SDS011;12385;51.412;5.540;2023-04-03T06:58:44;8.07;;;3.05;;
24261;SDS011;12385;51.412;5.540;2023-04-03T07:01:11;10.43;;;3.20;;
24261;SDS011;12385;51.412;5.540;2023-04-03T07:03:38;11.75;;;3.45;;
24261;SDS011;12385;51.412;5.540;2023-04-03T07:06:05;5.95;;;2.50;;
24261;SDS011;12385;51.412;5.540;2023-04-03T07:08:32;8.15;;;3.05;;
24261;SDS011;12385;51.412;5.540;2023-04-03T07:10:58;11.57;;;3.58;;
24261;SDS011;12385;51.412;5.540;2023-04-03T07:13:24;9.55;;;2.78;;
24261;SDS011;12385;51.412;5.540;2023-04-03T07:15:50;8.20;;;2.72;;
24261;SDS011;12385;51.412;5.540;2023-04-03T07:18:16;12.38;;;3.50;;
24261;SDS011;12385;51.412;5.540;2023-04-03T07:20:44;8.43;;;2.80;;
24261;SDS011;12385;51.412;5.540;2023-04-03T07:23:10;9.45;;;2.95;;
24261;SDS011;12385;51.412;5.540;2023-04-03T07:25:36;9.23;;;2.97;;
24261;SDS011;12385;51.412;5.540;2023-04-03T07:28:02;7.78;;;2.80;;
24261;SDS011;12385;51.412;5.540;2023-04-03T07:30:29;7.65;;;3.00;;
24261;SDS011;12385;51.412;5.540;2023-04-03T07:32:54;6.65;;;2.63;;
24261;SDS011;12385;51.412;5.540;2023-04-03T07:35:20;9.80;;;2.40;;
24261;SDS011;12385;51.412;5.540;2023-04-03T07:37:46;6.68;;;2.58;;
24261;SDS011;12385;51.412;5.540;2023-04-03T07:40:11;7.70;;;2.78;;
24261;SDS011;12385;51.412;5.540;2023-04-03T07:42:37;13.48;;;3.00;;
24261;SDS011;12385;51.412;5.540;2023-04-03T07:45:03;6.80;;;2.60;;
24261;SDS011;12385;51.412;5.540;2023-04-03T07:47:29;10.65;;;2.90;;
24261;SDS011;12385;51.412;5.540;2023-04-03T07:49:56;6.93;;;2.33;;
24261;SDS011;12385;51.412;5.540;2023-04-03T07:52:23;9.10;;;2.45;;
24261;SDS011;12385;51.412;5.540;2023-04-03T07:54:48;11.40;;;3.03;;
24261;SDS011;12385;51.412;5.540;2023-04-03T07:57:14;12.73;;;2.70;;
24261;SDS011;12385;51.412;5.540;2023-04-03T07:59:40;7.57;;;2.17;;
24261;SDS011;12385;51.412;5.540;2023-04-03T08:02:08;8.10;;;2.63;;
24261;SDS011;12385;51.412;5.540;2023-04-03T08:04:35;10.55;;;3.15;;
24261;SDS011;12385;51.412;5.540;2023-04-03T08:07:01;9.57;;;2.17;;
24261;SDS011;12385;51.412;5.540;2023-04-03T08:09:26;6.75;;;2.00;;
24261;SDS011;12385;51.412;5.540;2023-04-03T08:11:52;9.25;;;2.80;;
24261;SDS011;12385;51.412;5.540;2023-04-03T08:14:18;7.47;;;2.70;;
24261;SDS011;12385;51.412;5.540;2023-04-03T08:16:45;11.55;;;2.38;;
24261;SDS011;12385;51.412;5.540;2023-04-03T08:19:11;6.75;;;2.30;;
24261;SDS011;12385;51.412;5.540;2023-04-03T08:21:39;8.32;;;2.08;;
24261;SDS011;12385;51.412;5.540;2023-04-03T08:24:06;16.88;;;2.10;;
24261;SDS011;12385;51.412;5.540;2023-04-03T08:26:32;6.13;;;2.00;;
24261;SDS011;12385;51.412;5.540;2023-04-03T08:28:58;8.50;;;2.78;;
24261;SDS011;12385;51.412;5.540;2023-04-03T08:31:25;6.85;;;2.30;;
24261;SDS011;12385;51.412;5.540;2023-04-03T08:33:51;9.55;;;2.50;;
24261;SDS011;12385;51.412;5.540;2023-04-03T08:38:49;9.88;;;2.15;;
24261;SDS011;12385;51.412;5.540;2023-04-03T08:49:55;5.20;;;1.83;;
24261;SDS011;12385;51.412;5.540;2023-04-03T08:55:01;4.97;;;2.00;;
24261;SDS011;12385;51.412;5.540;2023-04-03T08:57:43;4.32;;;1.50;;
24261;SDS011;12385;51.412;5.540;2023-04-03T09:02:43;5.82;;;1.67;;
24261;SDS011;12385;51.412;5.540;2023-04-03T09:05:13;4.75;;;1.90;;
24261;SDS011;12385;51.412;5.540;2023-04-03T09:07:43;8.90;;;1.80;;
24261;SDS011;12385;51.412;5.540;2023-04-03T09:10:14;3.97;;;1.40;;
24261;SDS011;12385;51.412;5.540;2023-04-03T09:12:49;4.53;;;1.65;;
24261;SDS011;12385;51.412;5.540;2023-04-03T09:15:26;4.82;;;1.30;;
24261;SDS011;12385;51.412;5.540;2023-04-03T09:26:19;4.72;;;1.23;;
24261;SDS011;12385;51.412;5.540;2023-04-03T09:28:54;4.75;;;1.23;;
24261;SDS011;12385;51.412;5.540;2023-04-03T09:33:53;2.47;;;1.00;;
24261;SDS011;12385;51.412;5.540;2023-04-03T09:39:07;4.63;;;1.20;;
24261;SDS011;12385;51.412;5.540;2023-04-03T09:41:36;2.40;;;0.95;;
24261;SDS011;12385;51.412;5.540;2023-04-03T09:44:02;4.85;;;1.08;;
24261;SDS011;12385;51.412;5.540;2023-04-03T09:46:43;2.97;;;0.95;;
24261;SDS011;12385;51.412;5.540;2023-04-03T09:49:09;1.90;;;0.90;;
24261;SDS011;12385;51.412;5.540;2023-04-03T09:51:37;2.38;;;0.98;;
24261;SDS011;12385;51.412;5.540;2023-04-03T09:57:12;3.03;;;0.95;;
24261;SDS011;12385;51.412;5.540;2023-04-03T10:02:28;3.33;;;0.90;;
24261;SDS011;12385;51.412;5.540;2023-04-03T10:05:03;1.50;;;0.90;;
24261;SDS011;12385;51.412;5.540;2023-04-03T10:10:42;2.00;;;0.82;;
24261;SDS011;12385;51.412;5.540;2023-04-03T10:13:14;2.03;;;1.00;;
24261;SDS011;12385;51.412;5.540;2023-04-03T10:15:46;2.78;;;0.90;;
24261;SDS011;12385;51.412;5.540;2023-04-03T10:21:13;3.67;;;1.20;;
24261;SDS011;12385;51.412;5.540;2023-04-03T10:23:52;1.85;;;0.90;;
24261;SDS011;12385;51.412;5.540;2023-04-03T10:34:47;1.13;;;0.70;;
24261;SDS011;12385;51.412;5.540;2023-04-03T10:40:05;2.97;;;1.20;;
24261;SDS011;12385;51.412;5.540;2023-04-03T10:42:49;3.97;;;1.02;;
24261;SDS011;12385;51.412;5.540;2023-04-03T10:48:10;2.75;;;1.00;;
24261;SDS011;12385;51.412;5.540;2023-04-03T10:55:50;2.83;;;0.95;;
24261;SDS011;12385;51.412;5.540;2023-04-03T10:58:32;2.47;;;0.88;;
24261;SDS011;12385;51.412;5.540;2023-04-03T11:01:14;1.85;;;0.93;;
24261;SDS011;12385;51.412;5.540;2023-04-03T11:03:51;1.75;;;0.80;;
24261;SDS011;12385;51.412;5.540;2023-04-03T11:06:20;4.35;;;0.82;;
24261;SDS011;12385;51.412;5.540;2023-04-03T11:08:50;2.25;;;1.00;;
24261;SDS011;12385;51.412;5.540;2023-04-03T11:11:25;3.22;;;1.13;;
24261;SDS011;12385;51.412;5.540;2023-04-03T11:13:56;4.13;;;1.15;;
24261;SDS011;12385;51.412;5.540;2023-04-03T11:16:27;2.22;;;1.00;;
24261;SDS011;12385;51.412;5.540;2023-04-03T11:19:41;2.08;;;1.00;;
24261;SDS011;12385;51.412;5.540;2023-04-03T11:21:56;3.10;;;0.80;;
24261;SDS011;12385;51.412;5.540;2023-04-03T11:24:26;2.47;;;0.80;;
24261;SDS011;12385;51.412;5.540;2023-04-03T11:26:56;2.28;;;0.70;;
24261;SDS011;12385;51.412;5.540;2023-04-03T11:29:26;3.97;;;1.20;;
24261;SDS011;12385;51.412;5.540;2023-04-03T11:32:05;2.05;;;0.80;;
24261;SDS011;12385;51.412;5.540;2023-04-03T11:34:42;2.88;;;1.08;;
24261;SDS011;12385;51.412;5.540;2023-04-03T11:39:59;3.53;;;1.05;;
24261;SDS011;12385;51.412;5.540;2023-04-03T11:42:49;1.92;;;0.75;;
24261;SDS011;12385;51.412;5.540;2023-04-03T11:47:53;2.63;;;1.08;;
24261;SDS011;12385;51.412;5.540;2023-04-03T11:50:41;1.45;;;0.80;;
24261;SDS011;12385;51.412;5.540;2023-04-03T11:55:44;2.97;;;1.10;;
24261;SDS011;12385;51.412;5.540;2023-04-03T12:00:56;1.65;;;0.90;;
24261;SDS011;12385;51.412;5.540;2023-04-03T12:08:26;2.53;;;0.90;;
24261;SDS011;12385;51.412;5.540;2023-04-03T12:29:24;5.43;;;1.10;;
24261;SDS011;12385;51.412;5.540;2023-04-03T12:46:23;2.22;;;0.80;;
24261;SDS011;12385;51.412;5.540;2023-04-03T12:48:58;3.42;;;0.88;;
24261;SDS011;12385;51.412;5.540;2023-04-03T12:56:41;2.92;;;0.88;;
24261;SDS011;12385;51.412;5.540;2023-04-03T12:59:20;2.03;;;0.90;;
24261;SDS011;12385;51.412;5.540;2023-04-03T13:01:54;2.72;;;1.10;;
24261;SDS011;12385;51.412;5.540;2023-04-03T13:04:22;3.42;;;1.20;;
24261;SDS011;12385;51.412;5.540;2023-04-03T13:06:49;3.90;;;1.02;;
24261;SDS011;12385;51.412;5.540;2023-04-03T13:09:19;2.45;;;0.90;;
24261;SDS011;12385;51.412;5.540;2023-04-03T13:11:48;2.67;;;1.20;;
24261;SDS011;12385;51.412;5.540;2023-04-03T13:14:20;4.53;;;1.00;;
24261;SDS011;12385;51.412;5.540;2023-04-03T13:19:24;2.58;;;1.00;;
24261;SDS011;12385;51.412;5.540;2023-04-03T13:21:52;5.15;;;1.30;;
24261;SDS011;12385;51.412;5.540;2023-04-03T13:24:35;3.58;;;1.15;;
24261;SDS011;12385;51.412;5.540;2023-04-03T13:27:03;8.07;;;1.67;;
24261;SDS011;12385;51.412;5.540;2023-04-03T13:29:31;3.42;;;1.33;;
24261;SDS011;12385;51.412;5.540;2023-04-03T13:31:59;4.97;;;1.15;;
24261;SDS011;12385;51.412;5.540;2023-04-03T13:34:27;2.95;;;1.27;;
24261;SDS011;12385;51.412;5.540;2023-04-03T13:37:01;3.20;;;1.20;;
24261;SDS011;12385;51.412;5.540;2023-04-03T13:39:36;3.28;;;1.20;;
24261;SDS011;12385;51.412;5.540;2023-04-03T13:47:46;3.58;;;1.08;;
24261;SDS011;12385;51.412;5.540;2023-04-03T13:50:15;7.97;;;1.40;;
24261;SDS011;12385;51.412;5.540;2023-04-03T13:55:24;3.83;;;1.10;;
24261;SDS011;12385;51.412;5.540;2023-04-03T13:58:00;2.15;;;1.10;;
24261;SDS011;12385;51.412;5.540;2023-04-03T14:00:53;2.88;;;1.15;;
24261;SDS011;12385;51.412;5.540;2023-04-03T14:03:42;2.63;;;1.00;;
24261;SDS011;12385;51.412;5.540;2023-04-03T14:06:13;3.85;;;1.00;;
24261;SDS011;12385;51.412;5.540;2023-04-03T14:08:41;7.50;;;1.30;;
24261;SDS011;12385;51.412;5.540;2023-04-03T14:11:15;3.83;;;1.13;;
24261;SDS011;12385;51.412;5.540;2023-04-03T14:13:44;2.67;;;1.10;;
24261;SDS011;12385;51.412;5.540;2023-04-03T14:16:29;4.15;;;1.45;;
24261;SDS011;12385;51.412;5.540;2023-04-03T14:18:57;6.88;;;1.33;;
24261;SDS011;12385;51.412;5.540;2023-04-03T14:21:23;2.72;;;1.25;;
24261;SDS011;12385;51.412;5.540;2023-04-03T14:23:48;3.25;;;1.10;;
24261;SDS011;12385;51.412;5.540;2023-04-03T14:26:16;5.07;;;1.30;;
24261;SDS011;12385;51.412;5.540;2023-04-03T14:28:45;4.18;;;1.42;;
24261;SDS011;12385;51.412;5.540;2023-04-03T14:31:13;2.15;;;1.17;;
24261;SDS011;12385;51.412;5.540;2023-04-03T14:33:40;3.70;;;1.10;;
24261;SDS011;12385;51.412;5.540;2023-04-03T14:36:11;3.92;;;1.23;;
24261;SDS011;12385;51.412;5.540;2023-04-03T14:38:40;4.72;;;1.33;;
24261;SDS011;12385;51.412;5.540;2023-04-03T14:41:06;4.18;;;1.27;;
24261;SDS011;12385;51.412;5.540;2023-04-03T14:43:32;4.22;;;1.20;;
24261;SDS011;12385;51.412;5.540;2023-04-03T14:45:57;2.45;;;1.27;;
24261;SDS011;12385;51.412;5.540;2023-04-03T14:48:24;5.75;;;1.65;;
24261;SDS011;12385;51.412;5.540;2023-04-03T14:50:52;2.90;;;0.93;;
24261;SDS011;12385;51.412;5.540;2023-04-03T14:53:19;2.75;;;1.20;;
24261;SDS011;12385;51.412;5.540;2023-04-03T14:55:49;4.63;;;1.20;;
24261;SDS011;12385;51.412;5.540;2023-04-03T14:58:16;4.70;;;1.38;;
24261;SDS011;12385;51.412;5.540;2023-04-03T15:00:44;4.15;;;1.33;;
24261;SDS011;12385;51.412;5.540;2023-04-03T15:03:14;2.95;;;1.17;;
24261;SDS011;12385;51.412;5.540;2023-04-03T15:05:42;2.97;;;1.20;;
24261;SDS011;12385;51.412;5.540;2023-04-03T15:11:06;5.03;;;1.10;;
24261;SDS011;12385;51.412;5.540;2023-04-03T15:13:32;2.65;;;1.10;;
24261;SDS011;12385;51.412;5.540;2023-04-03T15:15:57;3.85;;;1.15;;
24261;SDS011;12385;51.412;5.540;2023-04-03T15:18:24;3.58;;;1.30;;
24261;SDS011;12385;51.412;5.540;2023-04-03T15:20:53;6.65;;;1.75;;
24261;SDS011;12385;51.412;5.540;2023-04-03T15:23:23;3.65;;;1.38;;
24261;SDS011;12385;51.412;5.540;2023-04-03T15:25:53;3.03;;;1.17;;
24261;SDS011;12385;51.412;5.540;2023-04-03T15:28:23;3.45;;;1.40;;
24261;SDS011;12385;51.412;5.540;2023-04-03T15:30:54;3.22;;;1.20;;
24261;SDS011;12385;51.412;5.540;2023-04-03T15:33:20;4.53;;;1.42;;
24261;SDS011;12385;51.412;5.540;2023-04-03T15:35:46;4.38;;;1.52;;
24261;SDS011;12385;51.412;5.540;2023-04-03T15:38:12;2.17;;;1.20;;
24261;SDS011;12385;51.412;5.540;2023-04-03T15:40:38;4.45;;;1.65;;
24261;SDS011;12385;51.412;5.540;2023-04-03T15:43:05;3.97;;;1.40;;
24261;SDS011;12385;51.412;5.540;2023-04-03T15:45:31;5.05;;;1.70;;
24261;SDS011;12385;51.412;5.540;2023-04-03T15:47:58;3.17;;;1.40;;
24261;SDS011;12385;51.412;5.540;2023-04-03T15:50:24;4.20;;;1.25;;
24261;SDS011;12385;51.412;5.540;2023-04-03T15:52:51;4.90;;;1.55;;
24261;SDS011;12385;51.412;5.540;2023-04-03T15:55:22;9.95;;;2.35;;
24261;SDS011;12385;51.412;5.540;2023-04-03T15:57:50;5.85;;;3.22;;
24261;SDS011;12385;51.412;5.540;2023-04-03T16:00:17;3.95;;;1.52;;
24261;SDS011;12385;51.412;5.540;2023-04-03T16:02:44;5.22;;;1.42;;
24261;SDS011;12385;51.412;5.540;2023-04-03T16:05:12;3.70;;;1.93;;
24261;SDS011;12385;51.412;5.540;2023-04-03T16:07:39;3.33;;;1.40;;
24261;SDS011;12385;51.412;5.540;2023-04-03T16:10:06;4.22;;;1.50;;
24261;SDS011;12385;51.412;5.540;2023-04-03T16:12:33;4.28;;;1.20;;
24261;SDS011;12385;51.412;5.540;2023-04-03T16:14:59;4.43;;;1.38;;
24261;SDS011;12385;51.412;5.540;2023-04-03T16:17:25;6.10;;;1.45;;
24261;SDS011;12385;51.412;5.540;2023-04-03T16:19:52;4.20;;;1.45;;
24261;SDS011;12385;51.412;5.540;2023-04-03T16:22:18;4.53;;;1.67;;
24261;SDS011;12385;51.412;5.540;2023-04-03T16:24:44;4.13;;;1.20;;
24261;SDS011;12385;51.412;5.540;2023-04-03T16:27:11;7.68;;;1.65;;
24261;SDS011;12385;51.412;5.540;2023-04-03T16:29:36;5.18;;;1.40;;
24261;SDS011;12385;51.412;5.540;2023-04-03T16:32:02;4.10;;;1.48;;
24261;SDS011;12385;51.412;5.540;2023-04-03T16:34:28;4.35;;;1.38;;
24261;SDS011;12385;51.412;5.540;2023-04-03T16:36:57;3.30;;;1.33;;
24261;SDS011;12385;51.412;5.540;2023-04-03T16:39:22;3.95;;;1.45;;
24261;SDS011;12385;51.412;5.540;2023-04-03T16:41:49;6.07;;;1.42;;
24261;SDS011;12385;51.412;5.540;2023-04-03T16:44:15;6.93;;;1.20;;
24261;SDS011;12385;51.412;5.540;2023-04-03T16:46:42;4.32;;;1.70;;
24261;SDS011;12385;51.412;5.540;2023-04-03T16:49:08;3.35;;;1.33;;
24261;SDS011;12385;51.412;5.540;2023-04-03T16:51:34;4.07;;;1.30;;
24261;SDS011;12385;51.412;5.540;2023-04-03T16:53:59;3.33;;;1.25;;
24261;SDS011;12385;51.412;5.540;2023-04-03T16:56:26;3.80;;;1.30;;
24261;SDS011;12385;51.412;5.540;2023-04-03T16:58:52;4.72;;;1.52;;
24261;SDS011;12385;51.412;5.540;2023-04-03T17:01:19;3.40;;;1.30;;
24261;SDS011;12385;51.412;5.540;2023-04-03T17:03:46;5.43;;;1.23;;
24261;SDS011;12385;51.412;5.540;2023-04-03T17:06:13;5.80;;;1.50;;
24261;SDS011;12385;51.412;5.540;2023-04-03T17:08:46;4.47;;;1.30;;
24261;SDS011;12385;51.412;5.540;2023-04-03T17:11:14;3.42;;;1.20;;